sensor_id;sensor_type;location;lat;lon;timestamp;temperature;humidity
32095;DHT22;18608;53.688;10.748;2022-11-20T00:00:53;1.10;99.90
32095;DHT22;18608;53.688;10.748;2022-11-20T00:03:19;1.10;99.90
32095;DHT22;18608;53.688;10.748;2022-11-20T00:05:45;1.10;99.90
32095;DHT22;18608;53.688;10.748;2022-11-20T00:08:10;1.20;99.90
32095;DHT22;18608;53.688;10.748;2022-11-20T00:10:37;1.20;99.90
32095;DHT22;18608;53.688;10.748;2022-11-20T00:13:03;1.10;99.90
32095;DHT22;18608;53.688;10.748;2022-11-20T00:15:29;1.10;99.90
32095;DHT22;18608;53.688;10.748;2022-11-20T00:17:55;1.10;99.90
32095;DHT22;18608;53.688;10.748;2022-11-20T00:20:20;1.10;99.90
32095;DHT22;18608;53.688;10.748;2022-11-20T00:22:46;1.10;99.90
32095;DHT22;18608;53.688;10.748;2022-11-20T00:25:12;1.10;99.90
32095;DHT22;18608;53.688;10.748;2022-11-20T00:27:38;1.10;99.90
32095;DHT22;18608;53.688;10.748;2022-11-20T00:30:04;1.10;99.90
32095;DHT22;18608;53.688;10.748;2022-11-20T00:32:30;1.10;99.90
32095;DHT22;18608;53.688;10.748;2022-11-20T00:34:56;1.10;99.90
32095;DHT22;18608;53.688;10.748;2022-11-20T00:37:22;1.10;99.90
32095;DHT22;18608;53.688;10.748;2022-11-20T00:39:47;1.10;99.90
32095;DHT22;18608;53.688;10.748;2022-11-20T00:42:13;1.10;99.90
32095;DHT22;18608;53.688;10.748;2022-11-20T00:44:39;1.00;99.90
32095;DHT22;18608;53.688;10.748;2022-11-20T00:47:05;1.10;99.90
32095;DHT22;18608;53.688;10.748;2022-11-20T00:49:30;1.10;99.90
32095;DHT22;18608;53.688;10.748;2022-11-20T00:51:56;1.10;99.90
32095;DHT22;18608;53.688;10.748;2022-11-20T00:54:22;1.10;99.90
32095;DHT22;18608;53.688;10.748;2022-11-20T00:56:47;1.20;99.90
32095;DHT22;18608;53.688;10.748;2022-11-20T00:59:13;1.10;99.90
32095;DHT22;18608;53.688;10.748;2022-11-20T01:01:39;1.10;99.90
32095;DHT22;18608;53.688;10.748;2022-11-20T01:04:04;1.10;99.90
32095;DHT22;18608;53.688;10.748;2022-11-20T01:06:35;1.10;99.90
32095;DHT22;18608;53.688;10.748;2022-11-20T01:09:05;1.10;99.90
32095;DHT22;18608;53.688;10.748;2022-11-20T01:11:34;1.10;99.90
32095;DHT22;18608;53.688;10.748;2022-11-20T01:14:01;1.10;99.90
32095;DHT22;18608;53.688;10.748;2022-11-20T01:16:36;1.10;99.90
32095;DHT22;18608;53.688;10.748;2022-11-20T01:19:05;1.10;99.90
32095;DHT22;18608;53.688;10.748;2022-11-20T01:21:36;1.10;99.90
32095;DHT22;18608;53.688;10.748;2022-11-20T01:24:03;1.10;99.90
32095;DHT22;18608;53.688;10.748;2022-11-20T01:26:31;1.10;99.90
32095;DHT22;18608;53.688;10.748;2022-11-20T01:28:58;1.00;99.90
32095;DHT22;18608;53.688;10.748;2022-11-20T01:31:33;1.00;99.90
32095;DHT22;18608;53.688;10.748;2022-11-20T01:34:05;1.00;99.90
32095;DHT22;18608;53.688;10.748;2022-11-20T01:36:32;1.00;99.90
32095;DHT22;18608;53.688;10.748;2022-11-20T01:39:01;1.00;99.90
32095;DHT22;18608;53.688;10.748;2022-11-20T01:41:29;0.90;99.90
32095;DHT22;18608;53.688;10.748;2022-11-20T01:44:17;0.80;99.90
32095;DHT22;18608;53.688;10.748;2022-11-20T01:46:57;0.80;99.90
32095;DHT22;18608;53.688;10.748;2022-11-20T01:49:37;0.70;99.90
32095;DHT22;18608;53.688;10.748;2022-11-20T01:54:49;0.70;99.90
32095;DHT22;18608;53.688;10.748;2022-11-20T01:57:16;0.70;99.90
32095;DHT22;18608;53.688;10.748;2022-11-20T01:59:52;0.70;99.90
32095;DHT22;18608;53.688;10.748;2022-11-20T02:02:20;0.60;99.90
32095;DHT22;18608;53.688;10.748;2022-11-20T02:04:47;0.70;99.90
32095;DHT22;18608;53.688;10.748;2022-11-20T02:07:14;0.70;99.90
32095;DHT22;18608;53.688;10.748;2022-11-20T02:09:41;0.70;99.90
32095;DHT22;18608;53.688;10.748;2022-11-20T02:12:06;0.70;99.90
32095;DHT22;18608;53.688;10.748;2022-11-20T02:14:52;0.70;99.90
32095;DHT22;18608;53.688;10.748;2022-11-20T02:17:18;0.60;99.90
32095;DHT22;18608;53.688;10.748;2022-11-20T02:19:43;0.60;99.90
32095;DHT22;18608;53.688;10.748;2022-11-20T02:22:17;0.60;99.90
32095;DHT22;18608;53.688;10.748;2022-11-20T02:24:46;0.60;99.90
32095;DHT22;18608;53.688;10.748;2022-11-20T02:27:14;0.70;99.90
32095;DHT22;18608;53.688;10.748;2022-11-20T02:29:57;0.60;99.90
32095;DHT22;18608;53.688;10.748;2022-11-20T02:32:26;0.60;99.90
32095;DHT22;18608;53.688;10.748;2022-11-20T02:34:53;0.60;99.90
32095;DHT22;18608;53.688;10.748;2022-11-20T02:37:19;0.70;99.90
32095;DHT22;18608;53.688;10.748;2022-11-20T02:39:54;0.70;99.90
32095;DHT22;18608;53.688;10.748;2022-11-20T02:42:20;0.60;99.90
32095;DHT22;18608;53.688;10.748;2022-11-20T02:44:46;0.70;99.90
32095;DHT22;18608;53.688;10.748;2022-11-20T02:47:11;0.60;99.90
32095;DHT22;18608;53.688;10.748;2022-11-20T02:49:37;0.70;99.90
32095;DHT22;18608;53.688;10.748;2022-11-20T02:52:03;0.70;99.90
32095;DHT22;18608;53.688;10.748;2022-11-20T02:54:29;0.70;99.90
32095;DHT22;18608;53.688;10.748;2022-11-20T02:56:54;0.70;99.90
32095;DHT22;18608;53.688;10.748;2022-11-20T02:59:20;0.70;99.90
32095;DHT22;18608;53.688;10.748;2022-11-20T03:01:45;0.70;99.90
32095;DHT22;18608;53.688;10.748;2022-11-20T03:04:11;0.70;99.90
32095;DHT22;18608;53.688;10.748;2022-11-20T03:06:37;0.70;99.90
32095;DHT22;18608;53.688;10.748;2022-11-20T03:09:03;0.70;99.90
32095;DHT22;18608;53.688;10.748;2022-11-20T03:11:29;0.70;99.90
32095;DHT22;18608;53.688;10.748;2022-11-20T03:13:54;0.80;99.90
32095;DHT22;18608;53.688;10.748;2022-11-20T03:16:22;0.80;99.90
32095;DHT22;18608;53.688;10.748;2022-11-20T03:18:48;0.80;99.90
32095;DHT22;18608;53.688;10.748;2022-11-20T03:21:15;0.80;99.90
32095;DHT22;18608;53.688;10.748;2022-11-20T03:23:42;0.80;99.90
32095;DHT22;18608;53.688;10.748;2022-11-20T03:28:42;0.80;99.90
32095;DHT22;18608;53.688;10.748;2022-11-20T03:31:13;0.80;99.90
32095;DHT22;18608;53.688;10.748;2022-11-20T03:33:40;0.80;99.90
32095;DHT22;18608;53.688;10.748;2022-11-20T03:36:09;0.80;99.90
32095;DHT22;18608;53.688;10.748;2022-11-20T03:38:35;0.80;99.90
32095;DHT22;18608;53.688;10.748;2022-11-20T03:41:03;0.80;99.90
32095;DHT22;18608;53.688;10.748;2022-11-20T03:43:29;0.90;99.90
32095;DHT22;18608;53.688;10.748;2022-11-20T03:45:55;0.90;99.90
32095;DHT22;18608;53.688;10.748;2022-11-20T03:48:21;0.90;99.90
32095;DHT22;18608;53.688;10.748;2022-11-20T03:50:46;0.90;99.90
32095;DHT22;18608;53.688;10.748;2022-11-20T03:53:14;0.90;99.90
32095;DHT22;18608;53.688;10.748;2022-11-20T03:55:39;0.90;99.90
32095;DHT22;18608;53.688;10.748;2022-11-20T03:58:05;0.80;99.90
32095;DHT22;18608;53.688;10.748;2022-11-20T04:00:31;0.80;99.90
32095;DHT22;18608;53.688;10.748;2022-11-20T04:03:00;0.80;99.90
32095;DHT22;18608;53.688;10.748;2022-11-20T04:05:26;0.80;99.90
32095;DHT22;18608;53.688;10.748;2022-11-20T04:07:52;0.80;99.90
32095;DHT22;18608;53.688;10.748;2022-11-20T04:10:18;0.80;99.90
32095;DHT22;18608;53.688;10.748;2022-11-20T04:12:43;0.80;99.90
32095;DHT22;18608;53.688;10.748;2022-11-20T04:15:09;0.80;99.90
32095;DHT22;18608;53.688;10.748;2022-11-20T04:17:35;0.80;99.90
32095;DHT22;18608;53.688;10.748;2022-11-20T04:20:01;0.80;99.90
32095;DHT22;18608;53.688;10.748;2022-11-20T04:22:27;0.80;99.90
32095;DHT22;18608;53.688;10.748;2022-11-20T04:24:53;0.90;99.90
32095;DHT22;18608;53.688;10.748;2022-11-20T04:27:19;0.90;99.90
32095;DHT22;18608;53.688;10.748;2022-11-20T04:29:44;0.90;99.90
32095;DHT22;18608;53.688;10.748;2022-11-20T04:32:10;0.90;99.90
32095;DHT22;18608;53.688;10.748;2022-11-20T04:34:36;0.90;99.90
32095;DHT22;18608;53.688;10.748;2022-11-20T04:37:01;0.90;99.90
32095;DHT22;18608;53.688;10.748;2022-11-20T04:39:27;0.80;99.90
32095;DHT22;18608;53.688;10.748;2022-11-20T04:41:53;0.90;99.90
32095;DHT22;18608;53.688;10.748;2022-11-20T04:44:38;0.90;99.90
32095;DHT22;18608;53.688;10.748;2022-11-20T04:47:04;0.80;99.90
32095;DHT22;18608;53.688;10.748;2022-11-20T04:49:30;0.90;99.90
32095;DHT22;18608;53.688;10.748;2022-11-20T04:51:57;0.90;99.90
32095;DHT22;18608;53.688;10.748;2022-11-20T04:54:23;0.90;99.90
32095;DHT22;18608;53.688;10.748;2022-11-20T04:56:49;0.90;99.90
32095;DHT22;18608;53.688;10.748;2022-11-20T04:59:16;0.90;99.90
32095;DHT22;18608;53.688;10.748;2022-11-20T05:01:41;0.90;99.90
32095;DHT22;18608;53.688;10.748;2022-11-20T05:04:07;0.90;99.90
32095;DHT22;18608;53.688;10.748;2022-11-20T05:06:33;0.90;99.90
32095;DHT22;18608;53.688;10.748;2022-11-20T05:08:59;0.90;99.90
32095;DHT22;18608;53.688;10.748;2022-11-20T05:11:26;0.90;99.90
32095;DHT22;18608;53.688;10.748;2022-11-20T05:13:54;0.90;99.90
32095;DHT22;18608;53.688;10.748;2022-11-20T05:16:22;0.90;99.90
32095;DHT22;18608;53.688;10.748;2022-11-20T05:18:48;0.90;99.90
32095;DHT22;18608;53.688;10.748;2022-11-20T05:21:15;0.90;99.90
32095;DHT22;18608;53.688;10.748;2022-11-20T05:23:41;0.90;99.90
32095;DHT22;18608;53.688;10.748;2022-11-20T05:26:13;0.90;99.90
32095;DHT22;18608;53.688;10.748;2022-11-20T05:28:39;0.90;99.90
32095;DHT22;18608;53.688;10.748;2022-11-20T05:31:21;0.90;99.90
32095;DHT22;18608;53.688;10.748;2022-11-20T05:33:47;0.70;99.90
32095;DHT22;18608;53.688;10.748;2022-11-20T05:36:13;0.80;99.90
32095;DHT22;18608;53.688;10.748;2022-11-20T05:38:40;0.90;99.90
32095;DHT22;18608;53.688;10.748;2022-11-20T05:41:12;0.90;99.90
32095;DHT22;18608;53.688;10.748;2022-11-20T05:43:40;0.90;99.90
32095;DHT22;18608;53.688;10.748;2022-11-20T05:46:07;0.90;99.90
32095;DHT22;18608;53.688;10.748;2022-11-20T05:48:35;0.90;99.90
32095;DHT22;18608;53.688;10.748;2022-11-20T05:51:02;0.90;99.90
32095;DHT22;18608;53.688;10.748;2022-11-20T05:53:28;0.90;99.90
32095;DHT22;18608;53.688;10.748;2022-11-20T05:55:59;0.90;99.90
32095;DHT22;18608;53.688;10.748;2022-11-20T05:58:25;0.90;99.90
32095;DHT22;18608;53.688;10.748;2022-11-20T06:00:50;0.80;99.90
32095;DHT22;18608;53.688;10.748;2022-11-20T06:03:16;0.80;99.90
32095;DHT22;18608;53.688;10.748;2022-11-20T06:05:42;0.80;99.90
32095;DHT22;18608;53.688;10.748;2022-11-20T06:08:07;0.80;99.90
32095;DHT22;18608;53.688;10.748;2022-11-20T06:10:33;0.80;99.90
32095;DHT22;18608;53.688;10.748;2022-11-20T06:12:59;0.90;99.90
32095;DHT22;18608;53.688;10.748;2022-11-20T06:15:25;0.90;99.90
32095;DHT22;18608;53.688;10.748;2022-11-20T06:17:54;0.90;99.90
32095;DHT22;18608;53.688;10.748;2022-11-20T06:20:21;0.80;99.90
32095;DHT22;18608;53.688;10.748;2022-11-20T06:22:46;0.80;99.90
32095;DHT22;18608;53.688;10.748;2022-11-20T06:25:12;0.80;99.90
32095;DHT22;18608;53.688;10.748;2022-11-20T06:27:38;0.80;99.90
32095;DHT22;18608;53.688;10.748;2022-11-20T06:30:04;0.80;99.90
32095;DHT22;18608;53.688;10.748;2022-11-20T06:32:30;0.90;99.90
32095;DHT22;18608;53.688;10.748;2022-11-20T06:34:56;0.80;99.90
32095;DHT22;18608;53.688;10.748;2022-11-20T06:37:21;0.80;99.90
32095;DHT22;18608;53.688;10.748;2022-11-20T06:39:47;0.80;99.90
32095;DHT22;18608;53.688;10.748;2022-11-20T06:42:13;0.90;99.90
32095;DHT22;18608;53.688;10.748;2022-11-20T06:44:38;0.90;99.90
32095;DHT22;18608;53.688;10.748;2022-11-20T06:47:04;0.80;99.90
32095;DHT22;18608;53.688;10.748;2022-11-20T06:49:30;0.80;99.90
32095;DHT22;18608;53.688;10.748;2022-11-20T06:51:55;0.80;99.90
32095;DHT22;18608;53.688;10.748;2022-11-20T06:54:21;0.80;99.90
32095;DHT22;18608;53.688;10.748;2022-11-20T06:56:47;0.80;99.90
32095;DHT22;18608;53.688;10.748;2022-11-20T06:59:13;0.90;99.90
32095;DHT22;18608;53.688;10.748;2022-11-20T07:01:39;0.90;99.90
32095;DHT22;18608;53.688;10.748;2022-11-20T07:04:04;0.90;99.90
32095;DHT22;18608;53.688;10.748;2022-11-20T07:06:30;0.90;99.90
32095;DHT22;18608;53.688;10.748;2022-11-20T07:08:56;0.90;99.90
32095;DHT22;18608;53.688;10.748;2022-11-20T07:11:22;0.90;99.90
32095;DHT22;18608;53.688;10.748;2022-11-20T07:13:49;0.90;99.90
32095;DHT22;18608;53.688;10.748;2022-11-20T07:16:15;1.00;99.90
32095;DHT22;18608;53.688;10.748;2022-11-20T07:18:41;1.00;99.90
32095;DHT22;18608;53.688;10.748;2022-11-20T07:21:08;1.00;99.90
32095;DHT22;18608;53.688;10.748;2022-11-20T07:23:35;1.00;99.90
32095;DHT22;18608;53.688;10.748;2022-11-20T07:26:06;1.00;99.90
32095;DHT22;18608;53.688;10.748;2022-11-20T07:28:32;1.00;99.90
32095;DHT22;18608;53.688;10.748;2022-11-20T07:30:57;1.00;99.90
32095;DHT22;18608;53.688;10.748;2022-11-20T07:33:23;1.00;99.90
32095;DHT22;18608;53.688;10.748;2022-11-20T07:35:49;1.00;99.90
32095;DHT22;18608;53.688;10.748;2022-11-20T07:38:14;1.00;99.90
32095;DHT22;18608;53.688;10.748;2022-11-20T07:40:40;1.10;99.90
32095;DHT22;18608;53.688;10.748;2022-11-20T07:43:06;1.10;99.90
32095;DHT22;18608;53.688;10.748;2022-11-20T07:45:32;1.10;99.90
32095;DHT22;18608;53.688;10.748;2022-11-20T07:47:57;1.10;99.90
32095;DHT22;18608;53.688;10.748;2022-11-20T07:50:23;1.10;99.90
32095;DHT22;18608;53.688;10.748;2022-11-20T07:52:49;1.10;99.90
32095;DHT22;18608;53.688;10.748;2022-11-20T07:55:15;1.10;99.90
32095;DHT22;18608;53.688;10.748;2022-11-20T07:57:41;1.10;99.90
32095;DHT22;18608;53.688;10.748;2022-11-20T08:00:09;1.10;99.90
32095;DHT22;18608;53.688;10.748;2022-11-20T08:02:41;1.10;99.90
32095;DHT22;18608;53.688;10.748;2022-11-20T08:05:09;1.20;99.90
32095;DHT22;18608;53.688;10.748;2022-11-20T08:07:39;1.10;99.90
32095;DHT22;18608;53.688;10.748;2022-11-20T08:10:06;1.10;99.90
32095;DHT22;18608;53.688;10.748;2022-11-20T08:12:32;1.20;99.90
32095;DHT22;18608;53.688;10.748;2022-11-20T08:15:16;1.10;99.90
32095;DHT22;18608;53.688;10.748;2022-11-20T08:17:42;1.10;99.90
32095;DHT22;18608;53.688;10.748;2022-11-20T08:20:08;1.10;99.90
32095;DHT22;18608;53.688;10.748;2022-11-20T08:22:34;1.00;99.90
32095;DHT22;18608;53.688;10.748;2022-11-20T08:24:59;1.00;99.90
32095;DHT22;18608;53.688;10.748;2022-11-20T08:27:25;1.00;99.90
32095;DHT22;18608;53.688;10.748;2022-11-20T08:29:51;1.00;99.90
32095;DHT22;18608;53.688;10.748;2022-11-20T08:32:16;0.90;99.90
32095;DHT22;18608;53.688;10.748;2022-11-20T08:34:42;1.00;99.90
32095;DHT22;18608;53.688;10.748;2022-11-20T08:37:08;1.00;99.90
32095;DHT22;18608;53.688;10.748;2022-11-20T08:39:33;1.00;99.90
32095;DHT22;18608;53.688;10.748;2022-11-20T08:41:59;1.00;99.90
32095;DHT22;18608;53.688;10.748;2022-11-20T08:44:25;0.90;99.90
32095;DHT22;18608;53.688;10.748;2022-11-20T08:46:50;0.90;99.90
32095;DHT22;18608;53.688;10.748;2022-11-20T08:49:16;0.90;99.90
32095;DHT22;18608;53.688;10.748;2022-11-20T08:51:42;0.90;99.90
32095;DHT22;18608;53.688;10.748;2022-11-20T08:54:09;0.80;99.90
32095;DHT22;18608;53.688;10.748;2022-11-20T08:56:35;0.90;99.90
32095;DHT22;18608;53.688;10.748;2022-11-20T08:59:01;0.80;99.90
32095;DHT22;18608;53.688;10.748;2022-11-20T09:01:27;0.80;99.90
32095;DHT22;18608;53.688;10.748;2022-11-20T09:03:57;0.80;99.90
32095;DHT22;18608;53.688;10.748;2022-11-20T09:06:25;0.80;99.90
32095;DHT22;18608;53.688;10.748;2022-11-20T09:08:54;0.80;99.90
32095;DHT22;18608;53.688;10.748;2022-11-20T09:11:20;0.80;99.90
32095;DHT22;18608;53.688;10.748;2022-11-20T09:13:46;0.80;99.90
32095;DHT22;18608;53.688;10.748;2022-11-20T09:16:12;0.80;99.90
32095;DHT22;18608;53.688;10.748;2022-11-20T09:18:38;0.80;99.90
32095;DHT22;18608;53.688;10.748;2022-11-20T09:21:10;0.80;99.90
32095;DHT22;18608;53.688;10.748;2022-11-20T09:23:37;0.80;99.90
32095;DHT22;18608;53.688;10.748;2022-11-20T09:26:11;0.80;99.90
32095;DHT22;18608;53.688;10.748;2022-11-20T09:28:38;0.90;99.90
32095;DHT22;18608;53.688;10.748;2022-11-20T09:31:23;0.90;99.90
32095;DHT22;18608;53.688;10.748;2022-11-20T09:33:49;0.90;99.90
32095;DHT22;18608;53.688;10.748;2022-11-20T09:36:14;0.90;99.90
32095;DHT22;18608;53.688;10.748;2022-11-20T09:38:41;1.00;99.90
32095;DHT22;18608;53.688;10.748;2022-11-20T09:44:06;1.10;99.90
32095;DHT22;18608;53.688;10.748;2022-11-20T09:46:44;1.10;99.90
32095;DHT22;18608;53.688;10.748;2022-11-20T09:54:39;1.00;99.90
32095;DHT22;18608;53.688;10.748;2022-11-20T09:57:11;0.90;99.90
32095;DHT22;18608;53.688;10.748;2022-11-20T10:00:00;0.90;99.90
32095;DHT22;18608;53.688;10.748;2022-11-20T10:02:32;1.10;99.90
32095;DHT22;18608;53.688;10.748;2022-11-20T10:07:41;1.30;99.90
32095;DHT22;18608;53.688;10.748;2022-11-20T10:10:52;1.20;99.90
32095;DHT22;18608;53.688;10.748;2022-11-20T10:13:28;1.00;99.90
32095;DHT22;18608;53.688;10.748;2022-11-20T10:21:38;1.00;99.90
32095;DHT22;18608;53.688;10.748;2022-11-20T10:27:29;1.30;99.90
32095;DHT22;18608;53.688;10.748;2022-11-20T10:30:09;1.40;99.90
32095;DHT22;18608;53.688;10.748;2022-11-20T10:32:38;1.40;99.90
32095;DHT22;18608;53.688;10.748;2022-11-20T10:35:19;1.40;99.90
32095;DHT22;18608;53.688;10.748;2022-11-20T10:37:53;1.40;99.90
32095;DHT22;18608;53.688;10.748;2022-11-20T10:43:01;1.30;99.90
32095;DHT22;18608;53.688;10.748;2022-11-20T10:50:53;1.50;99.90
32095;DHT22;18608;53.688;10.748;2022-11-20T10:55:58;1.80;99.90
32095;DHT22;18608;53.688;10.748;2022-11-20T10:58:29;1.70;99.90
32095;DHT22;18608;53.688;10.748;2022-11-20T11:01:19;1.60;99.90
32095;DHT22;18608;53.688;10.748;2022-11-20T11:03:47;1.60;99.90
32095;DHT22;18608;53.688;10.748;2022-11-20T11:09:01;1.60;99.90
32095;DHT22;18608;53.688;10.748;2022-11-20T11:11:33;1.60;99.90
32095;DHT22;18608;53.688;10.748;2022-11-20T11:14:13;1.70;99.90
32095;DHT22;18608;53.688;10.748;2022-11-20T11:16:56;1.80;99.90
32095;DHT22;18608;53.688;10.748;2022-11-20T11:19:22;1.90;99.90
32095;DHT22;18608;53.688;10.748;2022-11-20T11:21:51;1.80;99.90
32095;DHT22;18608;53.688;10.748;2022-11-20T11:24:25;1.80;99.90
32095;DHT22;18608;53.688;10.748;2022-11-20T11:27:03;2.00;99.90
32095;DHT22;18608;53.688;10.748;2022-11-20T11:29:31;2.10;99.90
32095;DHT22;18608;53.688;10.748;2022-11-20T11:32:07;2.10;99.90
32095;DHT22;18608;53.688;10.748;2022-11-20T11:34:33;2.10;99.90
32095;DHT22;18608;53.688;10.748;2022-11-20T11:37:00;2.10;99.90
32095;DHT22;18608;53.688;10.748;2022-11-20T11:39:29;2.10;99.90
32095;DHT22;18608;53.688;10.748;2022-11-20T11:41:57;2.00;99.90
32095;DHT22;18608;53.688;10.748;2022-11-20T11:44:31;1.90;99.90
32095;DHT22;18608;53.688;10.748;2022-11-20T11:47:46;1.90;99.90
32095;DHT22;18608;53.688;10.748;2022-11-20T11:52:55;1.90;99.90
32095;DHT22;18608;53.688;10.748;2022-11-20T11:58:26;2.20;99.90
32095;DHT22;18608;53.688;10.748;2022-11-20T12:00:58;2.10;99.90
32095;DHT22;18608;53.688;10.748;2022-11-20T12:03:40;2.20;99.90
32095;DHT22;18608;53.688;10.748;2022-11-20T12:06:15;2.50;99.90
32095;DHT22;18608;53.688;10.748;2022-11-20T12:14:34;2.30;99.90
32095;DHT22;18608;53.688;10.748;2022-11-20T12:17:01;2.30;99.90
32095;DHT22;18608;53.688;10.748;2022-11-20T12:19:30;2.20;99.90
32095;DHT22;18608;53.688;10.748;2022-11-20T12:30:33;2.40;99.90
32095;DHT22;18608;53.688;10.748;2022-11-20T12:36:24;2.50;99.90
32095;DHT22;18608;53.688;10.748;2022-11-20T12:39:05;5.60;99.90
32095;DHT22;18608;53.688;10.748;2022-11-20T12:45:19;2.70;99.90
32095;DHT22;18608;53.688;10.748;2022-11-20T12:53:38;2.20;99.90
32095;DHT22;18608;53.688;10.748;2022-11-20T13:07:38;1.80;99.90
32095;DHT22;18608;53.688;10.748;2022-11-20T13:10:36;1.90;99.90
32095;DHT22;18608;53.688;10.748;2022-11-20T13:13:23;1.90;99.90
32095;DHT22;18608;53.688;10.748;2022-11-20T13:16:08;1.90;99.90
32095;DHT22;18608;53.688;10.748;2022-11-20T13:18:39;1.90;99.90
32095;DHT22;18608;53.688;10.748;2022-11-20T13:21:44;1.90;99.90
32095;DHT22;18608;53.688;10.748;2022-11-20T13:24:22;1.90;99.90
32095;DHT22;18608;53.688;10.748;2022-11-20T13:29:34;1.80;99.90
32095;DHT22;18608;53.688;10.748;2022-11-20T13:32:20;1.90;99.90
32095;DHT22;18608;53.688;10.748;2022-11-20T13:35:00;1.90;99.90
32095;DHT22;18608;53.688;10.748;2022-11-20T13:42:39;1.80;99.90
32095;DHT22;18608;53.688;10.748;2022-11-20T13:45:11;1.80;99.90
32095;DHT22;18608;53.688;10.748;2022-11-20T13:47:50;1.70;99.90
32095;DHT22;18608;53.688;10.748;2022-11-20T13:50:16;1.70;99.90
32095;DHT22;18608;53.688;10.748;2022-11-20T13:57:57;1.80;99.90
32095;DHT22;18608;53.688;10.748;2022-11-20T14:00:27;1.60;99.90
32095;DHT22;18608;53.688;10.748;2022-11-20T14:05:35;1.50;99.90
32095;DHT22;18608;53.688;10.748;2022-11-20T14:08:03;1.40;99.90
32095;DHT22;18608;53.688;10.748;2022-11-20T14:10:31;1.40;99.90
32095;DHT22;18608;53.688;10.748;2022-11-20T14:12:57;1.40;99.90
32095;DHT22;18608;53.688;10.748;2022-11-20T14:15:29;1.30;99.90
32095;DHT22;18608;53.688;10.748;2022-11-20T14:17:55;1.30;99.90
32095;DHT22;18608;53.688;10.748;2022-11-20T14:20:27;1.40;99.90
32095;DHT22;18608;53.688;10.748;2022-11-20T14:22:54;1.40;99.90
32095;DHT22;18608;53.688;10.748;2022-11-20T14:25:24;1.50;99.90
32095;DHT22;18608;53.688;10.748;2022-11-20T14:28:00;1.50;99.90
32095;DHT22;18608;53.688;10.748;2022-11-20T14:30:29;1.60;99.90
32095;DHT22;18608;53.688;10.748;2022-11-20T14:32:57;1.70;99.90
32095;DHT22;18608;53.688;10.748;2022-11-20T14:35:27;1.90;99.90
32095;DHT22;18608;53.688;10.748;2022-11-20T14:37:54;1.90;99.90
32095;DHT22;18608;53.688;10.748;2022-11-20T14:42:49;1.80;99.90
32095;DHT22;18608;53.688;10.748;2022-11-20T14:45:16;1.70;99.90
32095;DHT22;18608;53.688;10.748;2022-11-20T14:47:42;1.70;99.90
32095;DHT22;18608;53.688;10.748;2022-11-20T14:50:35;1.70;99.90
32095;DHT22;18608;53.688;10.748;2022-11-20T14:53:02;1.70;99.90
32095;DHT22;18608;53.688;10.748;2022-11-20T14:55:37;1.60;99.90
32095;DHT22;18608;53.688;10.748;2022-11-20T14:58:06;1.60;99.90
32095;DHT22;18608;53.688;10.748;2022-11-20T15:00:34;1.60;99.90
32095;DHT22;18608;53.688;10.748;2022-11-20T15:03:00;1.50;99.90
32095;DHT22;18608;53.688;10.748;2022-11-20T15:05:47;1.50;99.90
32095;DHT22;18608;53.688;10.748;2022-11-20T15:08:14;1.30;99.90
32095;DHT22;18608;53.688;10.748;2022-11-20T15:10:47;1.30;99.90
32095;DHT22;18608;53.688;10.748;2022-11-20T15:13:16;1.20;99.90
32095;DHT22;18608;53.688;10.748;2022-11-20T15:15:51;1.20;99.90
32095;DHT22;18608;53.688;10.748;2022-11-20T15:18:32;1.20;99.90
32095;DHT22;18608;53.688;10.748;2022-11-20T15:21:02;1.20;99.90
32095;DHT22;18608;53.688;10.748;2022-11-20T15:23:29;1.20;99.90
32095;DHT22;18608;53.688;10.748;2022-11-20T15:25:55;1.10;99.90
32095;DHT22;18608;53.688;10.748;2022-11-20T15:28:39;1.00;99.90
32095;DHT22;18608;53.688;10.748;2022-11-20T15:31:06;0.80;99.90
32095;DHT22;18608;53.688;10.748;2022-11-20T15:33:33;0.90;99.90
32095;DHT22;18608;53.688;10.748;2022-11-20T15:35:59;0.90;99.90
32095;DHT22;18608;53.688;10.748;2022-11-20T15:38:25;1.10;99.90
32095;DHT22;18608;53.688;10.748;2022-11-20T15:40:51;1.30;99.90
32095;DHT22;18608;53.688;10.748;2022-11-20T15:43:17;1.40;99.90
32095;DHT22;18608;53.688;10.748;2022-11-20T15:45:45;1.40;99.90
32095;DHT22;18608;53.688;10.748;2022-11-20T15:48:20;1.40;99.90
32095;DHT22;18608;53.688;10.748;2022-11-20T15:53:28;0.80;99.90
32095;DHT22;18608;53.688;10.748;2022-11-20T15:55:54;0.60;99.90
32095;DHT22;18608;53.688;10.748;2022-11-20T15:58:20;0.40;99.90
32095;DHT22;18608;53.688;10.748;2022-11-20T16:00:48;0.40;99.90
32095;DHT22;18608;53.688;10.748;2022-11-20T16:03:15;0.30;99.90
32095;DHT22;18608;53.688;10.748;2022-11-20T16:05:41;0.30;99.90
32095;DHT22;18608;53.688;10.748;2022-11-20T16:08:07;0.40;99.90
32095;DHT22;18608;53.688;10.748;2022-11-20T16:10:33;0.50;99.90
32095;DHT22;18608;53.688;10.748;2022-11-20T16:12:59;0.50;99.90
32095;DHT22;18608;53.688;10.748;2022-11-20T16:15:53;0.50;99.90
32095;DHT22;18608;53.688;10.748;2022-11-20T16:18:21;0.40;99.90
32095;DHT22;18608;53.688;10.748;2022-11-20T16:20:52;0.40;99.90
32095;DHT22;18608;53.688;10.748;2022-11-20T16:23:18;0.30;99.90
32095;DHT22;18608;53.688;10.748;2022-11-20T16:25:46;0.30;99.90
32095;DHT22;18608;53.688;10.748;2022-11-20T16:28:12;0.30;99.90
32095;DHT22;18608;53.688;10.748;2022-11-20T16:30:38;0.30;99.90
32095;DHT22;18608;53.688;10.748;2022-11-20T16:33:09;0.30;99.90
32095;DHT22;18608;53.688;10.748;2022-11-20T16:35:35;0.30;99.90
32095;DHT22;18608;53.688;10.748;2022-11-20T16:38:00;0.30;99.90
32095;DHT22;18608;53.688;10.748;2022-11-20T16:40:26;0.40;99.90
32095;DHT22;18608;53.688;10.748;2022-11-20T16:42:52;0.40;99.90
32095;DHT22;18608;53.688;10.748;2022-11-20T16:45:18;0.40;99.90
32095;DHT22;18608;53.688;10.748;2022-11-20T16:47:43;0.40;99.90
32095;DHT22;18608;53.688;10.748;2022-11-20T16:50:10;0.40;99.90
32095;DHT22;18608;53.688;10.748;2022-11-20T16:52:36;0.50;99.90
32095;DHT22;18608;53.688;10.748;2022-11-20T16:55:02;0.50;99.90
32095;DHT22;18608;53.688;10.748;2022-11-20T16:57:28;0.50;99.90
32095;DHT22;18608;53.688;10.748;2022-11-20T16:59:55;0.50;99.90
32095;DHT22;18608;53.688;10.748;2022-11-20T17:02:21;0.50;99.90
32095;DHT22;18608;53.688;10.748;2022-11-20T17:04:48;1.40;99.90
32095;DHT22;18608;53.688;10.748;2022-11-20T17:07:14;0.70;99.90
32095;DHT22;18608;53.688;10.748;2022-11-20T17:09:40;0.70;99.90
32095;DHT22;18608;53.688;10.748;2022-11-20T17:12:05;0.70;99.90
32095;DHT22;18608;53.688;10.748;2022-11-20T17:14:31;0.70;99.90
32095;DHT22;18608;53.688;10.748;2022-11-20T17:16:57;0.70;99.90
32095;DHT22;18608;53.688;10.748;2022-11-20T17:19:23;0.70;99.90
32095;DHT22;18608;53.688;10.748;2022-11-20T17:21:48;0.70;99.90
32095;DHT22;18608;53.688;10.748;2022-11-20T17:24:14;0.70;99.90